Terminal Aerodrome Forecast
Issued by NWS

Home | Current Version | Previous Version | Text Only | Print | Product List | Glossary On
Versions: 1 2 3 4 5 6 7 8 9 10 11 12 13 14 15 16 17 18 19 20 21 22
000
FTUS44 KLZK 180500 RRA
TAFLIT
TAF
KLIT 180540Z 1806/1906 VRB03KT P6SM BKN120 BKN250
     FM181000 00000KT 4SM BR SCT025 BKN120
      TEMPO 1810/1814 2SM BR OVC025
     FM181400 10004KT P6SM SCT025 BKN050
     FM181800 11005KT P6SM VCTS BKN050CB
     FM190000 VRB03KT P6SM BKN250=

USA.gov is the U.S. government's official web portal to all federal, state and local government web resources and services.